Time;durP1;ratioP1;P1;durP2;ratioP2;P2;SDS_P1;SDS_P2;PMS_P1;PMS_P2;Temp;Humidity;BMP_temperature;BMP_pressure;BME280_temperature;BME280_humidity;BME280_pressure;Samples;Min_cycle;Max_cycle;Signal;HPM_P1;HPM_P2
2023/03/12 00:01:28;;;;;;;10.47;6.23;;;-0.80;99.90;;;;;;5114350;28;20527;-80
2023/03/12 00:04:01;;;;;;;8.97;6.33;;;-0.70;99.90;;;;;;5114316;28;20797;-80
2023/03/12 00:06:29;;;;;;;10.00;6.53;;;-0.70;99.90;;;;;;5114052;27;20449;-79
2023/03/12 00:09:00;;;;;;;8.40;6.50;;;-0.70;99.90;;;;;;5113821;28;20586;-79
2023/03/12 00:11:29;;;;;;;8.73;6.13;;;-0.70;99.90;;;;;;5113939;28;20866;-79
2023/03/12 00:14:00;;;;;;;12.60;6.90;;;-0.70;99.90;;;;;;5113661;28;20463;-80
2023/03/12 00:16:29;;;;;;;8.83;6.63;;;-0.70;99.90;;;;;;5114344;28;20432;-80
2023/03/12 00:19:00;;;;;;;9.17;6.60;;;-0.60;99.90;;;;;;5113453;27;20961;-79
2023/03/12 00:21:28;;;;;;;8.97;6.53;;;-0.70;99.90;;;;;;5114566;28;20582;-79
2023/03/12 00:23:56;;;;;;;11.00;7.17;;;-0.70;99.90;;;;;;5113643;28;20819;-79
2023/03/12 00:26:24;;;;;;;13.33;7.57;;;-0.70;99.90;;;;;;5114109;28;20479;-80
2023/03/12 00:28:53;;;;;;;11.30;7.23;;;-0.70;99.90;;;;;;5113685;28;20470;-80
2023/03/12 00:31:25;;;;;;;14.13;7.07;;;-0.70;99.90;;;;;;5115412;28;20480;-81
2023/03/12 00:33:56;;;;;;;9.50;7.30;;;-0.70;99.90;;;;;;5114362;28;20553;-79
2023/03/12 00:36:28;;;;;;;11.80;6.87;;;-0.60;99.90;;;;;;5114331;28;20455;-80
2023/03/12 00:38:58;;;;;;;9.83;6.50;;;-0.70;99.90;;;;;;5115691;28;20456;-80
2023/03/12 00:41:27;;;;;;;12.47;6.87;;;-0.70;99.90;;;;;;5114141;28;20474;-79
2023/03/12 00:43:56;;;;;;;8.90;6.30;;;-0.60;99.90;;;;;;5112819;28;21007;-80
2023/03/12 00:46:25;;;;;;;11.53;6.53;;;-0.60;99.90;;;;;;5113404;28;20516;-80
2023/03/12 00:48:54;;;;;;;12.30;7.40;;;-0.60;99.90;;;;;;5113481;28;20452;-80
2023/03/12 00:51:22;;;;;;;12.90;7.20;;;-0.60;99.90;;;;;;5127718;27;20526;-80
2023/03/12 00:53:50;;;;;;;9.10;6.30;;;-0.60;99.90;;;;;;5133155;27;20494;-79
2023/03/12 00:56:21;;;;;;;10.37;6.13;;;-0.60;99.90;;;;;;5133604;27;20595;-79
2023/03/12 00:58:49;;;;;;;8.90;6.00;;;-0.60;99.90;;;;;;5123717;27;20556;-79
2023/03/12 01:01:18;;;;;;;8.17;5.83;;;-0.50;99.90;;;;;;5113041;28;20654;-79
2023/03/12 01:03:50;;;;;;;10.63;6.60;;;-0.50;99.90;;;;;;5112910;28;20472;-81
2023/03/12 01:06:18;;;;;;;9.17;6.57;;;-0.50;99.90;;;;;;5112797;27;20988;-80
2023/03/12 01:08:47;;;;;;;10.37;6.17;;;-0.50;99.90;;;;;;5113667;28;20452;-79
2023/03/12 01:11:15;;;;;;;11.60;6.53;;;-0.50;99.90;;;;;;5118480;28;20491;-80
2023/03/12 01:13:45;;;;;;;9.63;6.70;;;-0.60;99.90;;;;;;5115181;28;20467;-79
2023/03/12 01:16:13;;;;;;;13.77;7.30;;;-0.60;99.90;;;;;;5113147;28;20478;-80
2023/03/12 01:18:42;;;;;;;9.43;6.63;;;-0.60;99.90;;;;;;5113638;28;20460;-80
2023/03/12 01:21:11;;;;;;;10.63;6.07;;;-0.60;99.90;;;;;;5112894;28;20476;-80
2023/03/12 01:23:39;;;;;;;8.23;6.43;;;-0.70;99.90;;;;;;5112321;28;20527;-79
2023/03/12 01:26:13;;;;;;;9.67;6.60;;;-0.70;99.90;;;;;;5112768;28;20460;-80
2023/03/12 01:28:41;;;;;;;8.23;6.27;;;-0.70;99.90;;;;;;5113447;28;20420;-80
2023/03/12 01:31:11;;;;;;;9.17;6.37;;;-0.70;99.90;;;;;;5112527;28;20511;-80
2023/03/12 01:33:39;;;;;;;8.00;5.93;;;-0.70;99.90;;;;;;5112406;28;20515;-80
2023/03/12 01:36:17;;;;;;;8.20;6.30;;;-0.80;99.90;;;;;;5112478;28;20445;-79
2023/03/12 01:38:46;;;;;;;8.80;6.33;;;-0.80;99.90;;;;;;5114258;28;20451;-80
2023/03/12 01:41:14;;;;;;;9.87;5.97;;;-0.80;99.90;;;;;;5114518;28;20428;-80
2023/03/12 01:43:43;;;;;;;9.03;6.13;;;-0.80;99.90;;;;;;5114121;28;20540;-80
2023/03/12 01:46:29;;;;;;;8.67;6.00;;;-0.80;99.90;;;;;;5112684;28;20549;-79
2023/03/12 01:49:07;;;;;;;8.30;6.43;;;-0.80;99.90;;;;;;5111766;28;20208;-79
2023/03/12 01:51:41;;;;;;;8.10;5.47;;;-0.80;99.90;;;;;;5132631;28;20474;-80
2023/03/12 01:54:13;;;;;;;9.83;6.43;;;-0.80;99.90;;;;;;5131866;28;20525;-80
2023/03/12 01:56:42;;;;;;;9.47;6.23;;;-0.80;99.90;;;;;;5112527;28;20447;-80
2023/03/12 01:59:16;;;;;;;8.40;6.23;;;-0.70;99.90;;;;;;5112342;28;20432;-79
2023/03/12 02:01:45;;;;;;;9.00;5.90;;;-0.80;99.90;;;;;;5112074;28;20459;-79
2023/03/12 02:04:16;;;;;;;9.17;6.03;;;-0.80;99.90;;;;;;5111614;28;20474;-80
2023/03/12 02:06:56;;;;;;;8.73;6.17;;;-0.80;99.90;;;;;;5112416;28;20462;-80
2023/03/12 02:09:25;;;;;;;9.50;5.90;;;-0.90;99.90;;;;;;5112349;28;20440;-80
2023/03/12 02:11:54;;;;;;;9.73;6.73;;;-0.90;99.90;;;;;;5111662;28;20938;-80
2023/03/12 02:14:22;;;;;;;8.30;5.80;;;-0.90;99.90;;;;;;5111730;28;20478;-79
2023/03/12 02:16:50;;;;;;;10.17;5.80;;;-1.00;99.90;;;;;;5112192;28;20589;-80
2023/03/12 02:19:27;;;;;;;8.97;5.70;;;-1.00;99.90;;;;;;5112026;28;20459;-79
2023/03/12 02:21:58;;;;;;;9.30;5.67;;;-1.00;99.90;;;;;;5111658;28;20815;-79
2023/03/12 02:24:32;;;;;;;8.03;5.73;;;-1.00;99.90;;;;;;5112197;28;20424;-80
2023/03/12 02:27:03;;;;;;;7.07;5.20;;;-1.10;99.90;;;;;;5115381;28;20435;-79
2023/03/12 02:29:34;;;;;;;8.77;5.80;;;-1.10;99.90;;;;;;5116103;28;20428;-79
2023/03/12 02:32:05;;;;;;;7.77;5.60;;;-1.10;99.90;;;;;;5115229;27;20490;-80
2023/03/12 02:34:36;;;;;;;7.87;5.47;;;-1.10;99.90;;;;;;5115845;28;20542;-79
2023/03/12 02:37:04;;;;;;;7.77;5.67;;;-1.20;99.90;;;;;;5116189;28;20558;-80
2023/03/12 02:39:32;;;;;;;8.13;5.47;;;-1.20;99.90;;;;;;5115548;27;20450;-80
2023/03/12 02:42:02;;;;;;;10.53;6.10;;;-1.20;99.90;;;;;;5115358;28;20463;-80
2023/03/12 02:44:33;;;;;;;8.70;5.63;;;-1.30;99.90;;;;;;5115654;28;20455;-81
2023/03/12 02:47:02;;;;;;;9.47;5.83;;;-1.20;99.90;;;;;;5115658;28;20428;-81
2023/03/12 02:49:32;;;;;;;8.90;5.57;;;-1.40;99.90;;;;;;5127742;27;20487;-80
2023/03/12 02:52:01;;;;;;;8.60;5.60;;;-1.40;99.90;;;;;;5114985;28;20475;-79
2023/03/12 02:54:29;;;;;;;6.47;5.00;;;-1.50;99.90;;;;;;5115668;28;20456;-80
2023/03/12 02:56:58;;;;;;;8.13;5.87;;;-1.50;99.90;;;;;;5115786;28;20489;-80
2023/03/12 02:59:28;;;;;;;9.17;5.80;;;-1.60;99.90;;;;;;5115384;28;20827;-79
2023/03/12 03:01:59;;;;;;;8.67;5.77;;;-1.60;99.90;;;;;;5115823;28;20428;-80
2023/03/12 03:04:28;;;;;;;9.67;5.80;;;-1.60;99.90;;;;;;5115330;28;20482;-81
2023/03/12 03:06:57;;;;;;;8.40;5.87;;;-1.60;99.90;;;;;;5128912;27;20550;-80
2023/03/12 03:09:29;;;;;;;8.23;5.77;;;-1.70;99.90;;;;;;5115221;28;20444;-79
2023/03/12 03:11:57;;;;;;;8.30;5.47;;;-1.70;99.90;;;;;;5115052;28;20503;-79
2023/03/12 03:14:29;;;;;;;7.43;5.20;;;-1.70;99.90;;;;;;5114832;27;20463;-80
2023/03/12 03:16:57;;;;;;;8.13;5.27;;;-1.70;99.90;;;;;;5115028;28;20483;-80
2023/03/12 03:19:25;;;;;;;9.70;5.90;;;-1.70;99.90;;;;;;5115168;28;20439;-80
2023/03/12 03:21:53;;;;;;;10.13;5.83;;;-1.80;99.90;;;;;;5114603;28;20451;-80
2023/03/12 03:24:22;;;;;;;7.10;5.03;;;-1.80;99.90;;;;;;5113694;27;20498;-81
2023/03/12 03:26:50;;;;;;;7.07;5.30;;;-1.80;99.90;;;;;;5114351;28;20482;-80
2023/03/12 03:29:21;;;;;;;8.20;5.23;;;-1.80;99.90;;;;;;5114928;27;20546;-80
2023/03/12 03:31:51;;;;;;;7.60;5.00;;;-1.80;99.90;;;;;;5114758;28;20432;-80
2023/03/12 03:34:20;;;;;;;7.43;5.27;;;-1.80;99.90;;;;;;5114684;28;20481;-80
2023/03/12 03:36:49;;;;;;;7.00;4.90;;;-1.70;99.90;;;;;;5114263;27;20570;-79
2023/03/12 03:39:17;;;;;;;7.23;4.93;;;-1.70;99.90;;;;;;5114594;28;20448;-80
2023/03/12 03:41:46;;;;;;;6.27;4.50;;;-1.60;99.90;;;;;;5114676;28;20535;-80
2023/03/12 03:44:14;;;;;;;6.63;4.40;;;-1.60;99.90;;;;;;5114084;28;20455;-80
2023/03/12 03:46:42;;;;;;;7.73;4.73;;;-1.60;99.90;;;;;;5120368;27;20473;-80
2023/03/12 03:49:15;;;;;;;6.87;4.50;;;-1.60;99.90;;;;;;5134797;27;20537;-80
2023/03/12 03:51:43;;;;;;;6.27;4.30;;;-1.50;99.90;;;;;;5134062;27;20949;-79
2023/03/12 03:54:12;;;;;;;5.80;4.10;;;-1.50;99.90;;;;;;5113748;28;20980;-81
2023/03/12 03:56:41;;;;;;;4.90;3.70;;;-1.40;99.90;;;;;;5114195;28;20489;-80
2023/03/12 03:59:09;;;;;;;6.60;3.57;;;-1.40;99.90;;;;;;5114768;28;20483;-81
2023/03/12 04:01:37;;;;;;;6.60;3.57;;;-1.40;99.90;;;;;;5113741;28;20551;-80
2023/03/12 04:04:06;;;;;;;5.80;3.63;;;-1.40;99.90;;;;;;5113728;28;20471;-80
2023/03/12 04:06:35;;;;;;;4.47;3.40;;;-1.40;99.90;;;;;;5114010;28;20970;-81
2023/03/12 04:09:05;;;;;;;4.20;2.97;;;-1.40;99.90;;;;;;5114217;28;20456;-80
2023/03/12 04:11:36;;;;;;;7.03;3.30;;;-1.30;99.90;;;;;;5114105;27;20550;-79
2023/03/12 04:14:04;;;;;;;4.27;3.10;;;-1.30;99.90;;;;;;5113926;28;20471;-80
2023/03/12 04:16:34;;;;;;;4.53;3.27;;;-1.30;99.90;;;;;;5113669;28;20463;-80
2023/03/12 04:19:04;;;;;;;6.43;2.90;;;-1.30;99.90;;;;;;5113450;27;20464;-81
2023/03/12 04:21:33;;;;;;;4.70;3.40;;;-1.30;99.90;;;;;;5113375;27;20504;-81
2023/03/12 04:24:02;;;;;;;4.20;3.20;;;-1.30;99.90;;;;;;5113529;27;20451;-81
2023/03/12 04:26:30;;;;;;;4.77;3.30;;;-1.30;99.90;;;;;;5113538;28;20543;-81
2023/03/12 04:29:00;;;;;;;3.53;3.00;;;-1.20;99.90;;;;;;5122319;27;20956;-79
2023/03/12 04:31:28;;;;;;;3.60;3.00;;;-1.20;99.90;;;;;;5134062;27;20474;-81
2023/03/12 04:33:59;;;;;;;4.93;3.20;;;-1.20;99.90;;;;;;5133831;27;20473;-80
2023/03/12 04:36:31;;;;;;;5.37;3.20;;;-1.20;99.90;;;;;;5134266;27;20451;-80
2023/03/12 04:39:02;;;;;;;6.07;3.47;;;-1.20;99.90;;;;;;5132750;27;20549;-81
2023/03/12 04:41:33;;;;;;;5.30;3.63;;;-1.20;99.90;;;;;;5133907;27;20481;-80
2023/03/12 04:44:02;;;;;;;5.47;3.03;;;-1.20;99.90;;;;;;5133399;27;20534;-81
2023/03/12 04:46:30;;;;;;;5.33;3.60;;;-1.20;99.90;;;;;;5130754;27;21439;-80
2023/03/12 04:49:01;;;;;;;5.97;3.50;;;-1.10;99.90;;;;;;5112436;28;20462;-80
2023/03/12 04:51:30;;;;;;;4.23;3.37;;;-1.10;99.90;;;;;;5113345;28;20464;-80
2023/03/12 04:53:58;;;;;;;5.27;3.50;;;-1.10;99.90;;;;;;5120858;27;20482;-81
2023/03/12 04:56:27;;;;;;;5.17;3.20;;;-1.10;99.90;;;;;;5126026;27;20459;-79
2023/03/12 04:58:57;;;;;;;7.40;3.47;;;-1.10;99.90;;;;;;5133609;27;20485;-80
2023/03/12 05:01:27;;;;;;;7.57;3.63;;;-1.10;99.90;;;;;;5133377;27;20566;-80
2023/03/12 05:03:56;;;;;;;4.80;3.40;;;-1.10;99.90;;;;;;5118364;27;20519;-80
2023/03/12 05:06:25;;;;;;;7.40;3.60;;;-1.10;99.90;;;;;;5113117;28;20818;-80
2023/03/12 05:08:55;;;;;;;6.57;3.73;;;-1.00;99.90;;;;;;5112930;28;20815;-80
2023/03/12 05:11:25;;;;;;;5.43;3.53;;;-1.00;99.90;;;;;;5112484;27;20497;-80
2023/03/12 05:13:53;;;;;;;4.70;3.63;;;-1.00;99.90;;;;;;5112406;28;20556;-80
2023/03/12 05:16:25;;;;;;;5.50;3.60;;;-1.00;99.90;;;;;;5112962;28;20465;-80
2023/03/12 05:18:53;;;;;;;6.67;4.17;;;-1.00;99.90;;;;;;5112751;28;20522;-81
2023/03/12 05:21:24;;;;;;;9.37;5.80;;;-0.90;99.90;;;;;;5112537;27;20547;-80
2023/03/12 05:23:55;;;;;;;7.97;4.87;;;-0.90;99.90;;;;;;5112787;28;20479;-80
2023/03/12 05:26:25;;;;;;;7.30;4.70;;;-1.00;99.90;;;;;;5112565;28;20504;-80
2023/03/12 05:28:56;;;;;;;7.57;4.23;;;-0.90;99.90;;;;;;5112675;28;20512;-80
2023/03/12 05:31:26;;;;;;;6.37;4.30;;;-0.90;99.90;;;;;;5112373;28;20491;-81
2023/03/12 05:33:54;;;;;;;6.80;4.23;;;-0.90;99.90;;;;;;5112379;28;20540;-80
2023/03/12 05:36:23;;;;;;;5.57;3.87;;;-0.90;99.90;;;;;;5113020;28;20483;-80
2023/03/12 05:38:54;;;;;;;6.40;4.20;;;-0.90;99.90;;;;;;5114494;28;20455;-79
2023/03/12 05:41:24;;;;;;;6.30;4.33;;;-0.90;99.90;;;;;;5117104;28;20562;-80
2023/03/12 05:43:54;;;;;;;5.90;4.40;;;-0.90;99.90;;;;;;5121207;27;20528;-79
2023/03/12 05:46:26;;;;;;;6.13;4.37;;;-0.90;99.90;;;;;;5133471;27;20553;-80
2023/03/12 05:48:54;;;;;;;8.10;4.70;;;-0.80;99.90;;;;;;5132367;27;20513;-79
2023/03/12 05:51:26;;;;;;;6.10;4.27;;;-0.80;99.90;;;;;;5132807;28;20500;-79
2023/03/12 05:53:54;;;;;;;5.70;4.00;;;-0.80;99.90;;;;;;5125971;28;20572;-79
2023/03/12 05:56:22;;;;;;;6.20;4.50;;;-0.80;99.90;;;;;;5116870;28;20491;-80
2023/03/12 05:58:50;;;;;;;7.67;5.00;;;-0.80;99.90;;;;;;5112581;28;20476;-81
2023/03/12 06:01:21;;;;;;;9.87;5.40;;;-0.70;99.90;;;;;;5136899;27;20538;-81
2023/03/12 06:03:50;;;;;;;9.10;4.70;;;-0.70;99.90;;;;;;5137403;27;20827;-81
2023/03/12 06:06:23;;;;;;;8.20;4.43;;;-0.70;99.90;;;;;;5137037;27;20454;-80
2023/03/12 06:08:51;;;;;;;8.17;5.30;;;-0.60;99.90;;;;;;5137254;27;20451;-81
2023/03/12 06:11:19;;;;;;;6.40;4.97;;;-0.50;99.90;;;;;;5137222;27;20565;-80
2023/03/12 06:13:48;;;;;;;6.93;5.13;;;-0.40;99.90;;;;;;5129752;27;20479;-80
2023/03/12 06:16:18;;;;;;;15.27;4.83;;;-0.40;99.90;;;;;;5116468;28;20455;-80
2023/03/12 06:18:52;;;;;;;6.40;5.10;;;-0.30;99.90;;;;;;5116680;28;20452;-80
2023/03/12 06:21:24;;;;;;;7.40;5.50;;;-0.20;99.90;;;;;;5117794;27;20579;-80
2023/03/12 06:23:55;;;;;;;7.73;5.23;;;0.00;99.90;;;;;;5125021;27;20546;-81
2023/03/12 06:26:23;;;;;;;7.27;5.37;;;0.10;99.90;;;;;;5122834;27;20501;-81
2023/03/12 06:28:53;;;;;;;7.43;5.80;;;0.20;99.90;;;;;;5116376;28;20489;-80
2023/03/12 06:31:22;;;;;;;7.87;5.20;;;0.40;99.90;;;;;;5115925;28;20652;-81
2023/03/12 06:33:52;;;;;;;9.07;5.93;;;0.40;99.90;;;;;;5115969;28;20825;-80
2023/03/12 06:36:23;;;;;;;7.80;5.70;;;0.50;99.90;;;;;;5115660;28;20249;-80
2023/03/12 06:38:51;;;;;;;9.63;7.03;;;0.60;99.90;;;;;;5115389;27;20489;-81
2023/03/12 06:41:24;;;;;;;8.47;5.70;;;0.60;99.90;;;;;;5115544;28;20260;-80
2023/03/12 06:43:52;;;;;;;9.03;6.30;;;0.70;99.90;;;;;;5132127;27;20490;-80
2023/03/12 06:46:21;;;;;;;7.70;5.50;;;0.90;99.90;;;;;;5136638;27;20205;-80
2023/03/12 06:48:49;;;;;;;7.47;5.67;;;1.00;99.90;;;;;;5123008;27;20215;-80
2023/03/12 06:51:18;;;;;;;7.90;5.77;;;1.20;99.90;;;;;;5116621;28;20242;-79
2023/03/12 06:53:47;;;;;;;9.97;6.37;;;1.20;99.90;;;;;;5122373;27;20247;-79
2023/03/12 06:56:16;;;;;;;6.77;5.50;;;1.20;99.90;;;;;;5119265;27;20210;-79
2023/03/12 06:58:44;;;;;;;10.33;6.30;;;1.30;99.90;;;;;;5118836;27;20200;-79
2023/03/12 07:01:12;;;;;;;7.80;6.30;;;1.40;99.90;;;;;;5136078;27;20681;-81
2023/03/12 07:03:46;;;;;;;7.10;6.23;;;1.50;99.90;;;;;;5114518;28;20234;-80
2023/03/12 07:06:15;;;;;;;9.00;6.07;;;1.70;99.90;;;;;;5115775;28;20206;-79
2023/03/12 07:08:47;;;;;;;7.73;6.13;;;1.70;99.90;;;;;;5114764;28;20218;-80
2023/03/12 07:11:16;;;;;;;7.77;5.97;;;1.80;99.90;;;;;;5120256;27;20193;-79
2023/03/12 07:13:45;;;;;;;9.70;7.23;;;1.80;99.90;;;;;;5134746;27;20629;-79
2023/03/12 07:16:18;;;;;;;7.97;5.57;;;1.80;99.90;;;;;;5135424;27;20213;-80
2023/03/12 07:18:50;;;;;;;8.10;6.33;;;1.90;99.90;;;;;;5131325;27;20564;-80
2023/03/12 07:21:21;;;;;;;7.87;6.10;;;1.90;99.90;;;;;;5114702;28;20289;-79
2023/03/12 07:23:51;;;;;;;7.83;6.60;;;1.90;99.90;;;;;;5114114;28;20640;-79
2023/03/12 07:26:20;;;;;;;9.20;6.67;;;2.00;99.90;;;;;;5113706;27;20206;-79
2023/03/12 07:28:49;;;;;;;8.60;6.67;;;2.10;99.90;;;;;;5122156;27;20662;-81
2023/03/12 07:31:17;;;;;;;8.57;6.73;;;2.20;99.90;;;;;;5122063;27;20259;-80
2023/03/12 07:33:45;;;;;;;10.63;6.93;;;2.30;99.90;;;;;;5134737;27;20629;-78
2023/03/12 07:36:16;;;;;;;9.83;6.70;;;2.30;99.90;;;;;;5123038;27;20707;-80
2023/03/12 07:38:46;;;;;;;8.90;6.63;;;2.40;99.90;;;;;;5113866;27;20214;-79
2023/03/12 07:41:18;;;;;;;8.17;6.33;;;2.50;99.90;;;;;;5120889;27;20277;-79
2023/03/12 07:43:49;;;;;;;8.10;6.27;;;2.60;99.90;;;;;;5134092;27;20300;-79
2023/03/12 07:46:17;;;;;;;8.00;6.20;;;2.80;99.90;;;;;;5134044;27;20212;-79
2023/03/12 07:48:45;;;;;;;7.00;6.10;;;2.80;99.90;;;;;;5119356;27;20685;-77
2023/03/12 07:51:14;;;;;;;6.97;5.90;;;2.90;99.90;;;;;;5113865;28;20297;-80
2023/03/12 07:53:43;;;;;;;8.17;6.17;;;3.10;99.90;;;;;;5113338;28;20231;-80
2023/03/12 07:56:14;;;;;;;8.20;6.40;;;3.10;99.90;;;;;;5113284;27;20283;-80
2023/03/12 07:58:47;;;;;;;8.20;5.93;;;3.20;99.90;;;;;;5113914;28;20197;-79
2023/03/12 08:01:15;;;;;;;8.43;5.50;;;3.50;99.90;;;;;;5114278;28;20202;-80
2023/03/12 08:03:44;;;;;;;6.83;5.57;;;3.70;99.90;;;;;;5113214;28;20230;-80
2023/03/12 08:06:14;;;;;;;7.70;5.70;;;4.10;99.90;;;;;;5114007;28;20293;-79
2023/03/12 08:08:42;;;;;;;6.47;5.17;;;4.40;99.90;;;;;;5113789;28;20598;-79
2023/03/12 08:11:11;;;;;;;7.40;5.30;;;4.80;99.90;;;;;;5113586;28;20679;-80
2023/03/12 08:13:39;;;;;;;6.23;4.50;;;4.90;99.90;;;;;;5112864;27;20295;-78
2023/03/12 08:16:09;;;;;;;5.43;3.93;;;5.10;99.90;;;;;;5123207;27;20264;-79
2023/03/12 08:18:44;;;;;;;6.30;4.07;;;5.20;99.90;;;;;;5126579;27;20209;-79
2023/03/12 08:21:16;;;;;;;5.47;4.30;;;5.30;99.90;;;;;;5122409;27;20634;-79
2023/03/12 08:23:44;;;;;;;6.37;4.07;;;4.90;99.90;;;;;;5121900;27;20210;-80
2023/03/12 08:26:12;;;;;;;5.90;4.60;;;4.80;99.90;;;;;;5124857;27;20194;-80
2023/03/12 08:28:41;;;;;;;7.07;4.73;;;4.80;99.90;;;;;;5124106;27;20652;-80
2023/03/12 08:31:11;;;;;;;5.60;4.10;;;4.70;99.90;;;;;;5125712;27;20213;-79
2023/03/12 08:33:42;;;;;;;8.13;5.13;;;4.60;99.90;;;;;;5126081;27;20209;-79
2023/03/12 08:36:10;;;;;;;7.13;4.97;;;4.70;99.90;;;;;;5134015;27;20217;-80
2023/03/12 08:38:39;;;;;;;7.93;5.73;;;5.00;99.90;;;;;;5118936;27;20206;-80
2023/03/12 08:41:09;;;;;;;7.03;5.17;;;5.20;99.90;;;;;;5116493;27;20241;-80
2023/03/12 08:43:40;;;;;;;6.03;4.03;;;5.30;99.90;;;;;;5120479;27;20305;-79
2023/03/12 08:46:10;;;;;;;6.87;4.40;;;5.60;99.90;;;;;;5133860;27;20288;-79
2023/03/12 08:48:40;;;;;;;6.57;4.60;;;5.80;99.90;;;;;;5122874;27;20297;-78
2023/03/12 08:51:11;;;;;;;5.77;3.97;;;5.80;99.90;;;;;;5113140;28;20263;-78
2023/03/12 08:53:40;;;;;;;6.20;4.13;;;5.40;99.90;;;;;;5113731;27;20194;-79
2023/03/12 08:56:10;;;;;;;5.60;4.27;;;5.50;99.90;;;;;;5130797;27;20213;-79
2023/03/12 08:58:38;;;;;;;6.63;4.60;;;5.60;99.90;;;;;;5131798;27;20224;-79
2023/03/12 09:01:11;;;;;;;5.80;4.33;;;5.80;99.90;;;;;;5131998;27;20256;-80
2023/03/12 09:03:42;;;;;;;6.00;3.73;;;6.00;99.90;;;;;;5132678;27;20247;-81
2023/03/12 09:06:15;;;;;;;5.97;3.37;;;6.20;99.90;;;;;;5132830;27;20203;-79
2023/03/12 09:08:44;;;;;;;6.50;3.60;;;6.20;99.90;;;;;;5131225;27;20714;-80
2023/03/12 09:11:13;;;;;;;4.70;3.73;;;6.10;99.90;;;;;;5117560;27;20238;-79
2023/03/12 09:13:45;;;;;;;6.13;3.67;;;6.10;99.90;;;;;;5110903;28;20289;-79
2023/03/12 09:16:35;;;;;;;6.00;3.70;;;5.80;99.90;;;;;;5114269;27;20253;-79
2023/03/12 09:19:04;;;;;;;5.53;3.50;;;5.80;99.90;;;;;;5134506;27;20189;-80
2023/03/12 09:21:32;;;;;;;5.07;3.27;;;6.00;99.90;;;;;;5122798;27;20212;-79
2023/03/12 09:24:00;;;;;;;10.23;4.87;;;6.00;99.90;;;;;;5115283;28;20206;-78
2023/03/12 09:26:28;;;;;;;6.83;3.40;;;6.10;99.90;;;;;;5116006;28;20245;-79
2023/03/12 09:28:57;;;;;;;6.00;3.20;;;6.10;99.90;;;;;;5116586;28;20272;-78
2023/03/12 09:31:26;;;;;;;5.57;2.80;;;6.20;99.90;;;;;;5116433;27;20233;-78
2023/03/12 09:33:55;;;;;;;7.03;3.00;;;6.30;99.90;;;;;;5115717;28;20210;-80
2023/03/12 09:36:24;;;;;;;5.97;2.97;;;6.10;99.90;;;;;;5115819;27;20709;-78
2023/03/12 09:38:52;;;;;;;5.67;2.43;;;6.10;99.90;;;;;;5130308;27;20603;-78
2023/03/12 09:41:23;;;;;;;8.93;4.63;;;6.00;99.90;;;;;;5125672;28;20217;-78
2023/03/12 09:43:57;;;;;;;6.17;3.30;;;6.20;99.90;;;;;;5130188;27;20580;-79
2023/03/12 09:46:32;;;;;;;6.00;3.20;;;6.20;99.90;;;;;;5136665;27;20197;-79
2023/03/12 09:49:07;;;;;;;4.10;2.50;;;6.00;99.90;;;;;;5123836;27;20262;-80
2023/03/12 09:51:40;;;;;;;4.63;2.23;;;6.10;99.90;;;;;;5129334;28;20212;-79
2023/03/12 09:54:18;;;;;;;5.77;2.53;;;6.20;99.90;;;;;;5116016;28;20193;-78
2023/03/12 09:56:47;;;;;;;6.00;3.00;;;6.30;99.90;;;;;;5128169;28;20317;-78
2023/03/12 09:59:15;;;;;;;5.20;2.33;;;6.60;99.90;;;;;;5112053;28;20210;-78
2023/03/12 10:01:50;;;;;;;5.77;2.87;;;6.90;99.90;;;;;;5123682;27;20202;-78
2023/03/12 10:04:33;;;;;;;4.23;3.00;;;6.90;99.90;;;;;;5133026;28;20647;-80
2023/03/12 10:07:18;;;;;;;4.53;3.10;;;6.80;99.90;;;;;;5133552;28;20194;-79
2023/03/12 10:10:06;;;;;;;6.10;3.53;;;6.60;99.90;;;;;;5123244;28;20209;-79
2023/03/12 10:12:45;;;;;;;7.33;3.23;;;6.70;99.90;;;;;;5102318;27;20519;-78
2023/03/12 10:15:27;;;;;;;4.73;2.77;;;6.80;99.90;;;;;;5125845;28;20220;-80
2023/03/12 10:18:07;;;;;;;5.50;3.20;;;6.70;99.90;;;;;;5130386;28;20600;-77
2023/03/12 10:20:52;;;;;;;4.50;2.83;;;7.40;99.90;;;;;;5117163;27;20193;-79
2023/03/12 10:23:30;;;;;;;5.37;3.13;;;7.40;99.90;;;;;;5118217;28;20198;-79
2023/03/12 10:26:03;;;;;;;4.50;2.80;;;7.70;99.90;;;;;;5116656;27;20251;-80
2023/03/12 10:28:37;;;;;;;4.77;3.30;;;7.60;99.90;;;;;;5123604;28;20224;-79
2023/03/12 10:31:12;;;;;;;4.90;3.17;;;7.80;99.90;;;;;;5132612;28;20221;-79
2023/03/12 10:33:46;;;;;;;5.30;3.27;;;7.50;99.90;;;;;;5121219;27;20232;-78
2023/03/12 10:36:19;;;;;;;6.60;3.60;;;7.30;99.90;;;;;;5111430;28;20322;-78
2023/03/12 10:38:48;;;;;;;8.53;3.90;;;6.80;99.90;;;;;;5111404;28;20301;-77
2023/03/12 10:41:19;;;;;;;4.90;3.50;;;6.70;99.90;;;;;;5112022;28;20221;-79
2023/03/12 10:43:47;;;;;;;5.77;3.67;;;6.40;99.90;;;;;;5120597;27;20689;-79
2023/03/12 10:46:45;;;;;;;5.33;3.43;;;6.40;99.90;;;;;;5111839;28;20377;-78
2023/03/12 10:49:25;;;;;;;8.87;3.40;;;6.30;99.90;;;;;;5115110;28;20664;-78
2023/03/12 10:52:00;;;;;;;5.33;2.80;;;6.30;99.90;;;;;;5113804;28;20202;-79
2023/03/12 10:54:32;;;;;;;5.20;3.00;;;6.20;99.90;;;;;;5115082;28;20196;-78
2023/03/12 10:57:00;;;;;;;4.40;2.83;;;5.90;99.90;;;;;;5114573;28;20229;-78
2023/03/12 10:59:32;;;;;;;5.27;3.03;;;5.80;99.90;;;;;;5115300;28;20671;-79
2023/03/12 11:02:01;;;;;;;6.87;3.20;;;5.60;99.90;;;;;;5122254;27;20208;-78
2023/03/12 11:04:31;;;;;;;6.17;2.90;;;5.60;99.90;;;;;;5133515;27;20209;-78
2023/03/12 11:07:21;;;;;;;6.43;3.20;;;5.60;99.90;;;;;;5134223;27;20213;-80
2023/03/12 11:10:14;;;;;;;4.80;3.17;;;5.40;99.90;;;;;;5127953;27;20226;-78
2023/03/12 11:12:59;;;;;;;5.00;2.93;;;5.40;99.90;;;;;;5114116;27;20242;-79
2023/03/12 11:15:31;;;;;;;4.43;2.90;;;5.20;99.90;;;;;;5122585;27;20182;-79
2023/03/12 11:18:21;;;;;;;4.80;3.10;;;5.30;99.90;;;;;;5121244;27;20230;-79
2023/03/12 11:20:51;;;;;;;5.23;3.20;;;5.20;99.90;;;;;;5101985;28;20226;-79
2023/03/12 11:23:24;;;;;;;5.23;3.10;;;5.20;99.90;;;;;;5114333;28;20534;-79
2023/03/12 11:25:58;;;;;;;4.93;2.83;;;5.10;99.90;;;;;;5114329;27;20191;-79
2023/03/12 11:28:36;;;;;;;3.20;2.70;;;5.10;99.90;;;;;;5129073;27;20247;-80
2023/03/12 11:31:09;;;;;;;4.20;3.30;;;4.80;99.90;;;;;;5135310;27;20213;-81
2023/03/12 11:33:37;;;;;;;4.93;2.97;;;4.80;99.90;;;;;;5135002;27;20292;-79
2023/03/12 11:36:29;;;;;;;4.97;2.90;;;4.80;99.90;;;;;;5131831;27;20266;-81
2023/03/12 11:39:05;;;;;;;4.30;3.00;;;4.80;99.90;;;;;;5134903;27;20660;-80
2023/03/12 11:41:50;;;;;;;4.77;3.83;;;4.70;99.90;;;;;;5135019;27;20207;-79
2023/03/12 11:44:27;;;;;;;3.30;2.73;;;4.70;99.90;;;;;;5126100;27;20220;-81
2023/03/12 11:47:16;;;;;;;3.53;2.90;;;4.40;99.90;;;;;;5114684;28;20214;-81
2023/03/12 11:50:03;;;;;;;4.07;3.27;;;4.40;99.90;;;;;;5114312;28;20214;-78
2023/03/12 11:52:40;;;;;;;3.53;2.80;;;4.40;99.90;;;;;;5114000;27;20624;-79
2023/03/12 11:55:23;;;;;;;4.77;2.73;;;4.40;99.90;;;;;;5114493;28;20293;-79
2023/03/12 11:58:04;;;;;;;3.30;3.00;;;4.40;99.90;;;;;;5113886;28;20300;-80
2023/03/12 12:00:39;;;;;;;3.83;3.43;;;4.40;99.90;;;;;;5114325;27;20224;-79
2023/03/12 12:03:33;;;;;;;4.57;3.30;;;4.50;99.90;;;;;;5114065;28;20747;-81
2023/03/12 12:06:05;;;;;;;3.50;3.10;;;4.60;99.90;;;;;;5113720;28;20571;-79
2023/03/12 12:08:58;;;;;;;4.57;3.20;;;4.60;99.90;;;;;;5114045;27;20590;-80
2023/03/12 12:11:39;;;;;;;5.67;4.27;;;4.80;99.90;;;;;;5114501;28;20186;-81
2023/03/12 12:14:18;;;;;;;2.90;2.53;;;4.60;99.90;;;;;;5113616;28;20718;-82
2023/03/12 12:17:04;;;;;;;2.10;1.90;;;4.40;99.90;;;;;;5113739;27;20395;-80
2023/03/12 12:19:50;;;;;;;2.03;1.83;;;4.40;99.90;;;;;;5113708;28;20194;-82
2023/03/12 12:22:35;;;;;;;2.20;2.00;;;4.60;99.90;;;;;;5112609;27;20196;-81
2023/03/12 12:25:28;;;;;;;2.07;1.83;;;4.60;99.90;;;;;;5129454;27;20532;-81
2023/03/12 12:28:19;;;;;;;3.17;2.73;;;4.40;99.90;;;;;;5117363;27;20671;-81
2023/03/12 12:30:59;;;;;;;3.37;2.90;;;4.40;99.90;;;;;;5116993;27;20293;-81
2023/03/12 12:33:39;;;;;;;2.93;2.37;;;4.40;99.90;;;;;;5113334;28;20270;-79
2023/03/12 12:36:09;;;;;;;3.57;2.87;;;4.40;99.90;;;;;;5133982;27;20212;-81
2023/03/12 12:38:42;;;;;;;3.17;2.77;;;4.40;99.90;;;;;;5134156;27;20234;-79
2023/03/12 12:41:15;;;;;;;3.00;2.43;;;4.60;99.90;;;;;;5124370;27;20277;-82
2023/03/12 12:43:48;;;;;;;3.77;2.90;;;4.60;99.90;;;;;;5130143;27;20321;-82
2023/03/12 12:46:20;;;;;;;2.53;2.23;;;4.60;99.90;;;;;;5129010;28;20213;-82
2023/03/12 12:48:52;;;;;;;2.20;2.00;;;4.70;99.90;;;;;;5127909;27;20206;-82
2023/03/12 12:51:25;;;;;;;2.30;2.10;;;4.60;99.90;;;;;;5115225;28;20579;-82
2023/03/12 12:54:01;;;;;;;2.07;1.93;;;4.70;99.90;;;;;;5113928;28;20197;-81
2023/03/12 12:56:34;;;;;;;1.90;1.70;;;4.80;99.90;;;;;;5113244;28;20241;-83
2023/03/12 12:59:23;;;;;;;1.70;1.60;;;4.70;99.90;;;;;;5113886;27;20218;-82
2023/03/12 13:01:54;;;;;;;2.10;1.90;;;4.70;99.90;;;;;;5112501;28;20202;-82
2023/03/12 13:04:26;;;;;;;1.90;1.80;;;4.60;99.90;;;;;;5113367;28;20651;-81
2023/03/12 13:06:58;;;;;;;2.00;1.90;;;4.70;99.90;;;;;;5112653;28;20683;-82
2023/03/12 13:09:37;;;;;;;2.50;2.00;;;4.70;99.90;;;;;;5112516;27;20202;-81
2023/03/12 13:12:19;;;;;;;2.10;1.90;;;4.90;99.90;;;;;;5113151;28;20305;-82
2023/03/12 13:14:50;;;;;;;2.53;1.90;;;5.10;99.90;;;;;;5119752;27;20198;-83